Time;durP1;ratioP1;P1;durP2;ratioP2;P2;SDS_P1;SDS_P2;PMS_P1;PMS_P2;Temp;Humidity;BMP_temperature;BMP_pressure;BME280_temperature;BME280_humidity;BME280_pressure;Samples;Min_cycle;Max_cycle;Signal;HPM_P1;HPM_P2
2023/04/01 00:00:18;;;;;;;1.25;0.40;;;19.60;62.80;;;;;;5026519;28;20020;-60
2023/04/01 00:02:44;;;;;;;0.82;0.50;;;19.60;62.80;;;;;;5016433;28;20322;-61
2023/04/01 00:05:10;;;;;;;1.58;0.43;;;19.60;62.80;;;;;;5010892;28;20029;-61
2023/04/01 00:07:37;;;;;;;2.45;0.90;;;19.60;62.70;;;;;;5011252;28;20040;-61
2023/04/01 00:10:04;;;;;;;1.42;0.50;;;19.60;62.80;;;;;;5010802;28;20528;-60
2023/04/01 00:12:29;;;;;;;0.77;0.43;;;19.60;62.80;;;;;;5014278;28;20543;-60
2023/04/01 00:14:55;;;;;;;2.30;0.60;;;19.60;62.70;;;;;;5018326;28;20033;-60
2023/04/01 00:17:21;;;;;;;1.88;0.60;;;19.60;62.70;;;;;;5019136;28;20445;-61
2023/04/01 00:19:46;;;;;;;0.90;0.40;;;19.60;63.30;;;;;;5016013;28;20040;-60
2023/04/01 00:22:12;;;;;;;0.80;0.40;;;19.60;62.70;;;;;;5019105;28;20033;-61
2023/04/01 00:24:38;;;;;;;1.65;0.65;;;19.60;62.70;;;;;;5015901;28;20038;-61
2023/04/01 00:27:04;;;;;;;2.25;0.60;;;19.60;62.60;;;;;;5013122;28;20029;-51
2023/04/01 00:29:30;;;;;;;1.15;0.40;;;19.60;62.70;;;;;;5015464;28;20473;-59
2023/04/01 00:31:57;;;;;;;0.70;0.47;;;19.60;62.60;;;;;;5018583;28;20044;-59
2023/04/01 00:34:23;;;;;;;1.23;0.43;;;19.60;62.60;;;;;;5017013;28;20224;-61
2023/04/01 00:36:49;;;;;;;1.35;0.40;;;19.60;62.70;;;;;;5010346;28;20033;-59
2023/04/01 00:39:15;;;;;;;1.00;0.38;;;19.60;62.60;;;;;;5012555;28;20400;-61
2023/04/01 00:41:41;;;;;;;1.48;0.55;;;19.60;62.60;;;;;;5016392;28;20045;-61
2023/04/01 00:44:22;;;;;;;2.03;0.40;;;19.60;62.60;;;;;;5014743;28;20034;-60
2023/04/01 00:46:48;;;;;;;0.52;0.40;;;19.60;62.60;;;;;;5033108;28;20029;-60
2023/04/01 00:49:16;;;;;;;1.05;0.40;;;19.60;62.60;;;;;;5038050;28;20488;-61
2023/04/01 00:51:44;;;;;;;3.25;0.32;;;19.60;62.50;;;;;;5029952;28;20412;-60
2023/04/01 00:54:11;;;;;;;0.57;0.32;;;19.50;62.50;;;;;;5029334;28;20032;-59
2023/04/01 00:56:41;;;;;;;1.25;0.45;;;19.60;62.50;;;;;;5031841;28;20120;-61
2023/04/01 00:59:12;;;;;;;0.98;0.52;;;19.60;62.50;;;;;;5035115;28;20025;-61
2023/04/01 01:01:37;;;;;;;0.88;0.45;;;19.60;62.50;;;;;;5036992;28;20146;-61
2023/04/01 01:04:03;;;;;;;0.98;0.52;;;19.60;62.40;;;;;;5033186;28;20141;-61
2023/04/01 01:06:56;;;;;;;1.52;0.38;;;19.60;62.40;;;;;;5027110;28;20064;-61
2023/04/01 01:09:42;;;;;;;0.80;0.55;;;19.60;62.50;;;;;;5013094;28;20034;-60
2023/04/01 01:12:18;;;;;;;0.35;0.25;;;19.50;62.40;;;;;;5010732;28;20057;-61
2023/04/01 01:15:02;;;;;;;1.90;0.70;;;19.50;62.40;;;;;;5032688;28;20033;-52
2023/04/01 01:17:46;;;;;;;1.10;0.30;;;19.50;62.30;;;;;;5032061;28;20029;-61
2023/04/01 01:20:45;;;;;;;1.77;0.30;;;19.50;62.30;;;;;;5038819;28;20524;-60
2023/04/01 01:23:51;;;;;;;0.90;0.68;;;19.50;62.30;;;;;;5036126;28;20552;-61
2023/04/01 01:26:44;;;;;;;1.95;0.85;;;19.50;62.30;;;;;;5022782;28;20039;-61
2023/04/01 01:29:37;;;;;;;1.80;0.30;;;19.50;62.30;;;;;;5032560;28;20030;-60
2023/04/01 01:32:45;;;;;;;1.20;0.30;;;19.50;62.30;;;;;;5025499;28;20078;-61
2023/04/01 01:35:35;;;;;;;0.82;0.45;;;19.50;62.30;;;;;;5017046;28;20072;-61
2023/04/01 01:38:05;;;;;;;0.98;0.35;;;19.50;62.30;;;;;;5032474;28;20287;-61
2023/04/01 01:40:32;;;;;;;1.10;0.40;;;19.50;62.20;;;;;;5028122;28;20029;-60
2023/04/01 01:43:03;;;;;;;1.33;0.40;;;19.50;62.20;;;;;;5011120;28;20050;-61
2023/04/01 01:45:32;;;;;;;0.57;0.38;;;19.40;62.10;;;;;;5017551;28;20115;-61
2023/04/01 01:48:00;;;;;;;2.08;0.32;;;19.50;62.20;;;;;;5036237;28;20041;-60
2023/04/01 01:50:26;;;;;;;0.35;0.28;;;19.50;62.80;;;;;;5036577;28;20055;-61
2023/04/01 01:53:00;;;;;;;0.47;0.40;;;19.50;62.20;;;;;;5033176;28;20037;-61
2023/04/01 01:55:32;;;;;;;0.95;0.40;;;19.50;62.10;;;;;;5032891;28;20039;-60
2023/04/01 01:58:02;;;;;;;1.45;0.45;;;19.50;62.10;;;;;;5030611;28;20051;-61
2023/04/01 02:00:28;;;;;;;0.98;0.30;;;19.50;62.10;;;;;;5032745;28;20488;-61
2023/04/01 02:02:55;;;;;;;3.80;0.50;;;19.50;62.10;;;;;;5032713;28;20037;-57
2023/04/01 02:05:23;;;;;;;0.60;0.40;;;19.50;62.10;;;;;;5029835;28;20532;-60
2023/04/01 02:08:07;;;;;;;0.93;0.40;;;19.50;62.10;;;;;;5034201;28;20033;-61
2023/04/01 02:10:37;;;;;;;1.20;0.43;;;19.50;62.10;;;;;;5015286;28;20042;-61
2023/04/01 02:13:10;;;;;;;1.15;0.40;;;19.50;62.00;;;;;;5013931;28;20030;-57
2023/04/01 02:15:41;;;;;;;0.75;0.63;;;19.50;62.10;;;;;;5017790;28;20536;-60
2023/04/01 02:18:07;;;;;;;0.85;0.52;;;19.50;62.10;;;;;;5015226;28;20026;-55
2023/04/01 02:20:34;;;;;;;0.93;0.30;;;19.50;62.10;;;;;;5013463;28;20075;-61
2023/04/01 02:23:01;;;;;;;0.43;0.32;;;19.50;62.00;;;;;;5015844;28;20498;-61
2023/04/01 02:25:30;;;;;;;0.52;0.30;;;19.40;62.00;;;;;;5018188;28;20120;-60
2023/04/01 02:27:58;;;;;;;2.17;0.45;;;19.40;62.00;;;;;;5020885;28;20029;-61
2023/04/01 02:30:27;;;;;;;0.70;0.20;;;19.40;62.00;;;;;;5016152;28;20041;-54
2023/04/01 02:32:54;;;;;;;2.05;0.40;;;19.40;62.00;;;;;;5013698;28;20414;-60
2023/04/01 02:35:20;;;;;;;0.70;0.30;;;19.40;62.00;;;;;;5013505;28;20072;-61
2023/04/01 02:37:48;;;;;;;0.98;0.40;;;19.40;62.00;;;;;;5016581;28;20302;-61
2023/04/01 02:40:15;;;;;;;2.03;0.55;;;19.40;61.90;;;;;;5017238;28;20036;-54
2023/04/01 02:42:41;;;;;;;0.43;0.30;;;19.40;61.90;;;;;;5034442;28;20053;-62
2023/04/01 02:45:08;;;;;;;0.73;0.43;;;19.40;62.00;;;;;;5040650;28;20103;-56
2023/04/01 02:47:34;;;;;;;0.40;0.20;;;19.40;61.90;;;;;;5019363;28;20120;-61
2023/04/01 02:49:59;;;;;;;0.73;0.38;;;19.40;61.90;;;;;;5033842;28;20045;-55
2023/04/01 02:52:26;;;;;;;2.22;0.40;;;19.40;61.90;;;;;;5039040;28;20045;-60
2023/04/01 02:54:52;;;;;;;0.75;0.20;;;19.40;61.90;;;;;;5039194;28;20040;-61
2023/04/01 02:57:17;;;;;;;2.08;0.55;;;19.40;61.90;;;;;;5035786;28;20034;-61
2023/04/01 02:59:43;;;;;;;2.15;0.40;;;19.40;61.80;;;;;;5030797;28;20037;-61
2023/04/01 03:02:08;;;;;;;1.08;0.30;;;19.40;61.80;;;;;;5033418;28;20043;-61
2023/04/01 03:04:34;;;;;;;1.27;0.30;;;19.40;61.80;;;;;;5033959;28;20037;-60
2023/04/01 03:07:00;;;;;;;0.82;0.40;;;19.40;61.70;;;;;;5036413;28;20033;-62
2023/04/01 03:09:25;;;;;;;0.57;0.50;;;19.40;61.70;;;;;;5027848;28;20408;-61
2023/04/01 03:11:50;;;;;;;1.02;0.32;;;19.40;61.70;;;;;;5032847;28;20172;-61
2023/04/01 03:14:16;;;;;;;0.98;0.40;;;19.40;61.60;;;;;;5025222;28;20455;-62
2023/04/01 03:16:41;;;;;;;1.17;0.40;;;19.40;61.70;;;;;;5019644;28;20037;-61
2023/04/01 03:19:07;;;;;;;1.75;0.43;;;19.40;61.70;;;;;;5017014;28;20115;-61
2023/04/01 03:21:32;;;;;;;1.08;0.32;;;19.40;61.70;;;;;;5016294;28;20037;-61
2023/04/01 03:23:58;;;;;;;2.33;0.68;;;19.40;61.70;;;;;;5020549;28;20033;-61
2023/04/01 03:26:26;;;;;;;1.00;0.40;;;19.40;61.70;;;;;;5010933;28;20037;-62
2023/04/01 03:28:52;;;;;;;1.48;0.52;;;19.40;61.70;;;;;;5017341;28;20029;-61
2023/04/01 03:31:17;;;;;;;1.27;0.63;;;19.40;61.70;;;;;;5031203;28;20048;-62
2023/04/01 03:33:43;;;;;;;0.90;0.43;;;19.40;61.70;;;;;;5020088;28;20048;-61
2023/04/01 03:36:08;;;;;;;0.82;0.55;;;19.40;61.70;;;;;;5034579;28;20091;-61
2023/04/01 03:38:34;;;;;;;0.40;0.40;;;19.40;61.60;;;;;;5030913;28;20452;-61
2023/04/01 03:41:00;;;;;;;1.25;0.43;;;19.40;61.60;;;;;;5027227;28;20463;-56
2023/04/01 03:43:26;;;;;;;1.02;0.30;;;19.40;61.60;;;;;;5007156;28;20060;-57
2023/04/01 03:45:52;;;;;;;0.85;0.40;;;19.40;61.60;;;;;;5016951;28;20105;-61
2023/04/01 03:48:18;;;;;;;0.85;0.32;;;19.40;61.60;;;;;;5037596;28;20029;-62
2023/04/01 03:50:44;;;;;;;0.60;0.30;;;19.30;61.60;;;;;;5036436;28;20087;-62
2023/04/01 03:53:10;;;;;;;1.85;0.57;;;19.40;61.60;;;;;;5032448;28;20060;-58
2023/04/01 03:55:36;;;;;;;0.60;0.40;;;19.30;61.60;;;;;;5031590;28;20039;-61
2023/04/01 03:58:02;;;;;;;0.50;0.25;;;19.30;61.60;;;;;;5033854;28;20116;-62
2023/04/01 04:00:29;;;;;;;1.40;0.35;;;19.40;61.60;;;;;;5034543;28;20113;-58
2023/04/01 04:02:56;;;;;;;1.33;0.40;;;19.30;61.60;;;;;;5033144;28;20033;-61
2023/04/01 04:05:22;;;;;;;1.25;0.50;;;19.30;61.60;;;;;;5034349;28;20135;-61
2023/04/01 04:07:47;;;;;;;1.05;0.35;;;19.30;61.60;;;;;;5034686;28;20029;-61
2023/04/01 04:10:13;;;;;;;1.60;0.43;;;19.30;61.60;;;;;;5032278;28;20428;-61
2023/04/01 04:12:40;;;;;;;1.02;0.35;;;19.30;61.60;;;;;;5035120;28;20045;-53
2023/04/01 04:15:06;;;;;;;1.77;0.50;;;19.30;61.60;;;;;;5036395;28;20777;-61
2023/04/01 04:17:32;;;;;;;0.65;0.30;;;19.30;61.50;;;;;;5035837;28;20506;-59
2023/04/01 04:19:57;;;;;;;0.43;0.20;;;19.30;61.50;;;;;;5035860;28;20033;-61
2023/04/01 04:22:23;;;;;;;1.90;0.20;;;19.30;61.60;;;;;;5035383;28;20131;-60
2023/04/01 04:24:48;;;;;;;0.47;0.30;;;19.30;61.50;;;;;;5032335;28;20029;-54
2023/04/01 04:27:13;;;;;;;1.10;0.30;;;19.30;61.50;;;;;;5034093;28;20413;-55
2023/04/01 04:29:39;;;;;;;1.02;0.38;;;19.30;61.50;;;;;;5031478;28;20060;-55
2023/04/01 04:32:05;;;;;;;1.13;0.40;;;19.30;61.50;;;;;;5033707;28;20376;-60
2023/04/01 04:34:31;;;;;;;0.90;0.30;;;19.30;61.60;;;;;;5036533;28;20032;-61
2023/04/01 04:36:56;;;;;;;1.92;0.50;;;19.30;61.50;;;;;;5036648;28;20341;-57
2023/04/01 04:39:22;;;;;;;1.45;0.45;;;19.30;61.50;;;;;;5031825;28;20025;-61
2023/04/01 04:41:47;;;;;;;0.63;0.30;;;19.30;61.40;;;;;;5035777;28;20029;-60
2023/04/01 04:44:13;;;;;;;2.65;0.40;;;19.30;61.40;;;;;;5035142;28;20036;-59
2023/04/01 04:46:39;;;;;;;2.25;0.40;;;19.30;61.40;;;;;;5033939;28;20120;-61
2023/04/01 04:49:05;;;;;;;1.05;0.35;;;19.30;61.40;;;;;;5038196;28;20083;-60
2023/04/01 04:51:33;;;;;;;1.13;0.50;;;19.30;61.40;;;;;;5035664;28;20256;-61
2023/04/01 04:53:59;;;;;;;1.02;0.30;;;19.30;61.40;;;;;;5032182;28;20029;-61
2023/04/01 04:56:25;;;;;;;1.55;0.57;;;19.30;61.40;;;;;;5031073;28;20389;-61
2023/04/01 04:58:51;;;;;;;1.63;0.40;;;19.30;61.40;;;;;;5033087;28;20033;-62
2023/04/01 05:01:18;;;;;;;1.38;0.35;;;19.30;61.40;;;;;;5032321;28;20094;-62
2023/04/01 05:03:44;;;;;;;1.08;0.50;;;19.30;61.40;;;;;;5036098;28;20412;-62
2023/04/01 05:06:12;;;;;;;0.68;0.40;;;19.30;61.40;;;;;;5025111;28;20041;-63
2023/04/01 05:08:39;;;;;;;1.50;0.40;;;19.30;61.40;;;;;;5007333;28;20417;-62
2023/04/01 05:11:09;;;;;;;0.77;0.35;;;19.30;61.40;;;;;;5031881;28;20030;-62
2023/04/01 05:13:35;;;;;;;2.30;0.47;;;19.30;61.30;;;;;;5032996;28;20029;-61
2023/04/01 05:16:01;;;;;;;0.88;0.32;;;19.30;61.30;;;;;;5033140;28;20026;-61
2023/04/01 05:18:27;;;;;;;1.30;0.47;;;19.30;61.30;;;;;;5037488;28;20487;-56
2023/04/01 05:20:54;;;;;;;1.08;0.43;;;19.30;61.40;;;;;;5034576;28;20053;-61
2023/04/01 05:23:21;;;;;;;3.28;0.70;;;19.30;61.30;;;;;;5031280;28;20033;-61
2023/04/01 05:25:48;;;;;;;0.57;0.40;;;19.30;61.40;;;;;;5032066;28;20095;-62
2023/04/01 05:28:13;;;;;;;1.23;0.43;;;19.30;61.40;;;;;;5032025;28;20073;-61
2023/04/01 05:30:41;;;;;;;1.15;0.38;;;19.30;61.40;;;;;;5032456;28;20057;-62
2023/04/01 05:33:07;;;;;;;0.95;0.43;;;19.30;62.00;;;;;;5034269;28;20030;-63
2023/04/01 05:35:32;;;;;;;5.45;1.13;;;19.30;61.30;;;;;;5015697;28;20056;-61
2023/04/01 05:37:58;;;;;;;2.50;0.50;;;19.30;61.40;;;;;;5009491;28;20022;-60
2023/04/01 05:40:23;;;;;;;1.50;0.60;;;19.30;61.40;;;;;;5017205;28;20025;-62
2023/04/01 05:42:49;;;;;;;3.40;0.60;;;19.30;61.40;;;;;;5013763;28;20034;-62
2023/04/01 05:45:15;;;;;;;2.67;0.40;;;19.30;61.40;;;;;;5015011;28;20028;-62
2023/04/01 05:47:42;;;;;;;12.52;1.00;;;19.30;61.50;;;;;;5015746;28;20033;-62
2023/04/01 05:50:08;;;;;;;5.47;0.90;;;19.30;61.40;;;;;;5012095;28;20064;-52
2023/04/01 05:52:34;;;;;;;6.25;1.00;;;19.30;61.30;;;;;;5010625;28;20408;-61
2023/04/01 05:55:00;;;;;;;3.95;0.60;;;19.30;61.40;;;;;;5009942;28;20045;-58
2023/04/01 05:57:25;;;;;;;7.22;1.30;;;19.30;61.40;;;;;;5012273;28;20038;-58
2023/04/01 05:59:51;;;;;;;11.10;1.23;;;19.30;61.40;;;;;;5012295;28;20040;-63
2023/04/01 06:02:17;;;;;;;3.83;0.90;;;19.30;61.40;;;;;;5010545;28;20029;-63
2023/04/01 06:04:42;;;;;;;5.00;0.68;;;19.30;61.60;;;;;;5015150;28;20049;-61
2023/04/01 06:07:17;;;;;;;3.47;0.82;;;19.30;61.60;;;;;;5010787;28;20495;-58
2023/04/01 06:09:43;;;;;;;7.55;0.63;;;19.30;61.70;;;;;;5010261;28;20463;-63
2023/04/01 06:12:28;;;;;;;5.13;1.10;;;19.30;61.70;;;;;;5015377;28;20029;-63
2023/04/01 06:15:07;;;;;;;6.03;0.90;;;19.30;61.60;;;;;;5023553;28;20105;-55
2023/04/01 06:17:51;;;;;;;2.95;0.60;;;19.20;61.50;;;;;;5024823;28;20064;-62
2023/04/01 06:20:26;;;;;;;5.97;1.23;;;19.30;61.50;;;;;;5044474;28;20423;-51
2023/04/01 06:23:01;;;;;;;2.72;0.88;;;19.20;61.50;;;;;;5035013;28;20033;-60
2023/04/01 06:25:58;;;;;;;2.53;0.60;;;19.20;61.40;;;;;;5029094;28;20110;-51
2023/04/01 06:28:45;;;;;;;8.55;1.70;;;19.20;61.40;;;;;;5034470;28;20289;-61
2023/04/01 06:31:40;;;;;;;1.90;0.60;;;19.20;61.30;;;;;;5034706;28;20025;-61
2023/04/01 06:34:34;;;;;;;3.83;0.80;;;19.20;61.30;;;;;;5025271;28;20065;-61
2023/04/01 06:37:10;;;;;;;2.20;0.63;;;19.20;61.20;;;;;;5029978;28;20032;-62
2023/04/01 06:39:52;;;;;;;5.05;0.75;;;19.20;61.40;;;;;;5057436;28;20436;-62
2023/04/01 06:42:39;;;;;;;2.83;0.70;;;19.20;61.40;;;;;;5035406;28;20104;-62
2023/04/01 06:45:29;;;;;;;2.22;0.75;;;19.20;61.30;;;;;;5036107;28;20101;-59
2023/04/01 06:48:16;;;;;;;3.25;0.60;;;19.20;61.20;;;;;;5017742;28;20057;-63
2023/04/01 06:51:02;;;;;;;5.88;0.85;;;19.20;61.20;;;;;;5010276;28;20219;-62
2023/04/01 06:53:59;;;;;;;7.32;1.30;;;19.20;61.70;;;;;;5011690;28;20037;-64
2023/04/01 06:56:26;;;;;;;4.03;0.80;;;19.20;63.10;;;;;;5013247;28;20103;-65
2023/04/01 06:58:58;;;;;;;2.90;0.85;;;19.20;63.20;;;;;;5010572;28;20030;-63
2023/04/01 07:01:32;;;;;;;8.32;0.95;;;19.20;63.10;;;;;;5017707;28;20028;-57
2023/04/01 07:04:09;;;;;;;4.97;0.93;;;19.20;63.10;;;;;;5014731;28;20026;-54
2023/04/01 07:06:39;;;;;;;5.40;0.90;;;19.20;63.10;;;;;;5039599;28;20034;-61
2023/04/01 07:09:10;;;;;;;9.38;1.08;;;19.20;63.00;;;;;;5014325;28;20049;-56
2023/04/01 07:11:38;;;;;;;8.20;1.13;;;19.20;63.00;;;;;;5036091;28;20064;-62
2023/04/01 07:14:24;;;;;;;5.85;1.25;;;19.20;62.90;;;;;;5029760;28;20037;-62
2023/04/01 07:17:06;;;;;;;6.70;1.20;;;19.20;62.60;;;;;;5010321;28;20037;-62
2023/04/01 07:19:50;;;;;;;6.15;0.98;;;19.20;62.40;;;;;;5014858;28;20029;-63
2023/04/01 07:22:35;;;;;;;4.20;1.15;;;19.20;62.30;;;;;;5033799;28;20036;-62
2023/04/01 07:25:13;;;;;;;13.55;2.55;;;19.20;62.30;;;;;;5029400;28;20034;-62
2023/04/01 07:27:38;;;;;;;16.80;2.97;;;19.20;62.60;;;;;;5017821;28;20041;-61
2023/04/01 07:30:17;;;;;;;14.98;2.90;;;19.20;62.60;;;;;;5017862;28;20502;-62
2023/04/01 07:32:57;;;;;;;12.60;2.60;;;19.20;62.70;;;;;;5019660;28;20064;-63
2023/04/01 07:35:51;;;;;;;18.20;3.05;;;19.20;62.60;;;;;;5037824;28;20250;-62
2023/04/01 07:38:33;;;;;;;11.88;2.55;;;19.20;62.60;;;;;;5031821;28;20033;-62
2023/04/01 07:41:19;;;;;;;10.60;2.55;;;19.20;62.40;;;;;;5021837;28;20116;-58
2023/04/01 07:44:17;;;;;;;14.15;2.50;;;19.20;62.20;;;;;;5034185;28;20726;-62
2023/04/01 07:47:21;;;;;;;18.40;2.88;;;19.20;62.30;;;;;;5014486;28;20125;-63
2023/04/01 07:50:01;;;;;;;16.63;2.25;;;19.20;62.30;;;;;;5018104;28;20040;-62
2023/04/01 07:53:02;;;;;;;14.10;2.42;;;19.20;62.30;;;;;;5036350;28;20095;-60
2023/04/01 07:55:44;;;;;;;9.20;2.30;;;19.20;62.20;;;;;;5027015;28;20411;-62
2023/04/01 07:58:30;;;;;;;13.15;2.60;;;19.20;62.10;;;;;;5033716;28;20038;-62
2023/04/01 08:01:09;;;;;;;6.28;1.90;;;19.20;62.10;;;;;;5038097;28;20771;-60
2023/04/01 08:04:03;;;;;;;10.57;2.05;;;19.20;62.00;;;;;;5036232;28;20039;-63
2023/04/01 08:06:42;;;;;;;16.50;4.32;;;19.20;62.00;;;;;;5049039;28;20025;-62
2023/04/01 08:09:53;;;;;;;19.55;3.55;;;19.30;62.00;;;;;;5037513;28;20407;-58
2023/04/01 08:12:47;;;;;;;15.18;3.13;;;19.30;62.00;;;;;;5035966;28;20029;-62
2023/04/01 08:15:21;;;;;;;15.82;2.95;;;19.30;61.90;;;;;;5034300;28;20111;-62
2023/04/01 08:18:05;;;;;;;10.40;2.80;;;19.30;61.80;;;;;;5031586;28;20060;-61
2023/04/01 08:20:47;;;;;;;12.68;3.08;;;19.30;61.80;;;;;;5036568;28;20093;-61
2023/04/01 08:23:37;;;;;;;16.83;3.40;;;19.20;61.60;;;;;;5037649;28;20037;-51
2023/04/01 08:26:26;;;;;;;11.13;3.20;;;19.30;61.70;;;;;;5032083;28;20068;-63
2023/04/01 08:29:04;;;;;;;17.23;3.92;;;19.30;61.70;;;;;;5023546;28;20607;-61
2023/04/01 08:31:57;;;;;;;12.65;3.20;;;19.30;62.40;;;;;;5020591;28;20724;-55
2023/04/01 08:34:32;;;;;;;17.50;3.67;;;19.30;64.00;;;;;;5022904;28;20033;-54
2023/04/01 08:37:03;;;;;;;11.03;3.27;;;19.30;64.80;;;;;;5037309;28;20079;-61
2023/04/01 08:39:39;;;;;;;16.83;3.00;;;19.30;64.80;;;;;;5022053;28;20311;-61
2023/04/01 08:42:37;;;;;;;13.32;3.60;;;19.30;64.80;;;;;;5019849;28;20049;-61
2023/04/01 08:45:27;;;;;;;10.13;3.05;;;19.30;64.40;;;;;;5016161;28;20076;-52
2023/04/01 08:48:08;;;;;;;13.57;3.45;;;19.30;64.80;;;;;;5016776;28;20034;-58
2023/04/01 08:51:03;;;;;;;17.10;2.80;;;19.30;64.80;;;;;;5034849;28;20120;-61
2023/04/01 08:53:56;;;;;;;12.10;2.78;;;19.30;65.00;;;;;;5035807;28;20030;-56
2023/04/01 08:56:30;;;;;;;12.05;3.03;;;19.30;64.90;;;;;;5032303;28;20079;-55
2023/04/01 08:59:25;;;;;;;10.13;3.10;;;19.30;64.80;;;;;;5033421;28;20416;-61
2023/04/01 09:02:16;;;;;;;17.25;2.95;;;19.30;64.60;;;;;;5032730;28;20029;-61
2023/04/01 09:05:22;;;;;;;10.25;2.40;;;19.30;64.50;;;;;;5031965;28;20073;-54
2023/04/01 09:08:21;;;;;;;11.67;3.50;;;19.40;64.80;;;;;;5035460;28;20124;-57
2023/04/01 09:11:05;;;;;;;7.57;2.72;;;19.40;64.50;;;;;;5034356;28;20288;-58
2023/04/01 09:13:51;;;;;;;11.27;2.45;;;19.40;64.40;;;;;;5037476;28;20025;-61
2023/04/01 09:16:42;;;;;;;7.55;1.95;;;19.40;64.10;;;;;;5039857;28;20040;-62
2023/04/01 09:19:34;;;;;;;7.07;2.05;;;19.40;64.10;;;;;;5029401;28;20030;-61
2023/04/01 09:22:06;;;;;;;9.90;2.38;;;19.40;64.20;;;;;;5035883;28;20082;-61
2023/04/01 09:25:02;;;;;;;10.32;2.50;;;19.40;64.00;;;;;;5033852;28;20021;-62
2023/04/01 09:28:26;;;;;;;7.60;2.60;;;19.40;64.10;;;;;;5018519;28;20037;-61
2023/04/01 09:31:15;;;;;;;5.85;2.33;;;19.40;64.10;;;;;;4997039;28;20562;-58
2023/04/01 09:34:10;;;;;;;10.73;1.80;;;19.40;64.00;;;;;;4998072;28;20037;-52
2023/04/01 09:36:48;;;;;;;6.68;1.80;;;19.40;64.00;;;;;;5024825;28;20045;-59
2023/04/01 09:39:37;;;;;;;9.77;1.98;;;19.40;63.90;;;;;;5035643;28;20115;-54
2023/04/01 09:42:33;;;;;;;7.43;2.10;;;19.40;63.80;;;;;;5033279;28;20710;-56
2023/04/01 09:45:17;;;;;;;8.35;2.00;;;19.40;63.80;;;;;;5014932;28;20353;-62
2023/04/01 09:48:07;;;;;;;6.28;1.98;;;19.40;63.80;;;;;;5013781;28;20056;-62
2023/04/01 09:50:43;;;;;;;7.93;1.77;;;19.40;63.80;;;;;;5025572;28;20415;-62
2023/04/01 09:53:41;;;;;;;5.15;1.55;;;19.40;63.50;;;;;;5031798;28;20048;-60
2023/04/01 09:56:34;;;;;;;6.10;1.55;;;19.30;63.30;;;;;;5030709;28;20029;-63
2023/04/01 09:59:02;;;;;;;6.65;1.55;;;19.40;63.30;;;;;;5032118;28;20056;-62
2023/04/01 10:01:45;;;;;;;5.95;1.63;;;19.40;63.20;;;;;;5030096;28;20527;-59
2023/04/01 10:04:47;;;;;;;8.15;2.10;;;19.40;63.10;;;;;;5023842;28;20091;-61
2023/04/01 10:07:42;;;;;;;10.15;1.70;;;19.40;63.00;;;;;;5014323;28;20500;-58
2023/04/01 10:10:35;;;;;;;6.07;1.67;;;19.40;63.00;;;;;;5012560;28;20034;-62
2023/04/01 10:13:33;;;;;;;5.65;1.45;;;19.40;63.00;;;;;;5022726;28;20318;-62
2023/04/01 10:16:36;;;;;;;6.07;1.52;;;19.40;62.80;;;;;;5021892;28;20513;-62
2023/04/01 10:19:16;;;;;;;8.95;1.90;;;19.40;62.80;;;;;;5031732;28;20102;-61
2023/04/01 10:22:16;;;;;;;6.63;1.70;;;19.30;62.80;;;;;;5034140;28;20547;-57
2023/04/01 10:25:16;;;;;;;8.15;1.10;;;19.40;62.80;;;;;;5030519;28;20032;-59
2023/04/01 10:28:03;;;;;;;3.13;1.25;;;19.30;62.80;;;;;;5030223;28;20061;-62
2023/04/01 10:30:40;;;;;;;7.68;1.60;;;19.40;62.80;;;;;;5005753;28;20519;-62
2023/04/01 10:33:24;;;;;;;3.60;0.82;;;19.30;62.70;;;;;;5013857;28;20033;-62
2023/04/01 10:36:01;;;;;;;6.43;1.33;;;19.40;62.80;;;;;;5034958;28;20098;-61
2023/04/01 10:38:35;;;;;;;3.97;1.50;;;19.40;62.80;;;;;;5028027;28;20029;-61
2023/04/01 10:41:34;;;;;;;4.40;1.50;;;19.30;62.80;;;;;;5030479;28;20038;-62
2023/04/01 10:44:20;;;;;;;4.13;1.23;;;19.30;62.70;;;;;;5016965;28;20033;-63
2023/04/01 10:47:13;;;;;;;4.13;1.10;;;19.30;62.80;;;;;;5015365;28;20160;-62
2023/04/01 10:50:03;;;;;;;4.07;0.90;;;19.30;62.80;;;;;;5035213;28;20060;-62
2023/04/01 10:52:48;;;;;;;3.72;1.38;;;19.40;62.80;;;;;;5031645;28;20067;-62
2023/04/01 10:55:37;;;;;;;4.03;1.30;;;19.40;62.70;;;;;;5032807;28;20030;-62
2023/04/01 10:58:22;;;;;;;4.53;1.33;;;19.40;62.70;;;;;;5032402;28;20116;-62
2023/04/01 11:01:22;;;;;;;3.33;0.98;;;19.30;62.70;;;;;;5035684;28;20033;-61
2023/04/01 11:04:25;;;;;;;4.93;1.20;;;19.30;62.70;;;;;;5040012;28;20029;-62
2023/04/01 11:07:21;;;;;;;4.45;1.52;;;19.40;62.70;;;;;;5015533;28;20033;-63
2023/04/01 11:10:05;;;;;;;3.42;0.93;;;19.30;62.70;;;;;;5012516;28;20053;-62
2023/04/01 11:13:08;;;;;;;3.65;0.93;;;19.30;62.70;;;;;;5014525;28;20305;-63
2023/04/01 11:16:19;;;;;;;6.07;1.02;;;19.30;62.70;;;;;;5013124;28;20025;-62
2023/04/01 11:19:06;;;;;;;2.25;0.98;;;19.30;62.70;;;;;;5015289;28;20129;-62
2023/04/01 11:21:53;;;;;;;3.20;0.95;;;19.30;62.70;;;;;;5026468;28;20566;-57
2023/04/01 11:24:21;;;;;;;5.32;1.20;;;19.30;62.70;;;;;;5034987;28;20058;-63
2023/04/01 11:27:15;;;;;;;3.45;0.80;;;19.30;62.60;;;;;;5033600;28;20032;-62
2023/04/01 11:29:53;;;;;;;2.72;0.60;;;19.30;62.60;;;;;;5035059;28;20124;-59
2023/04/01 11:32:48;;;;;;;5.85;1.48;;;19.30;62.60;;;;;;5029607;28;20119;-62
2023/04/01 11:35:51;;;;;;;5.07;0.80;;;19.30;62.60;;;;;;5034086;28;20041;-62
2023/04/01 11:38:38;;;;;;;5.35;0.90;;;19.30;62.50;;;;;;5033728;28;20127;-62
2023/04/01 11:41:25;;;;;;;2.22;0.88;;;19.30;62.50;;;;;;5031882;28;20026;-63
2023/04/01 11:44:16;;;;;;;2.50;0.75;;;19.30;62.50;;;;;;5035977;28;20064;-61
2023/04/01 11:47:08;;;;;;;3.63;0.77;;;19.30;62.50;;;;;;5016979;28;20045;-62
2023/04/01 11:49:50;;;;;;;1.85;0.60;;;19.30;62.50;;;;;;5040630;28;20048;-61
2023/04/01 11:52:32;;;;;;;2.97;0.90;;;19.30;62.50;;;;;;5033497;28;20286;-62
2023/04/01 11:55:25;;;;;;;2.40;0.65;;;19.30;62.40;;;;;;5032559;28;20026;-62
2023/04/01 11:58:05;;;;;;;2.38;0.60;;;19.30;62.40;;;;;;5037006;28;20382;-62
2023/04/01 12:01:05;;;;;;;1.60;0.50;;;19.30;62.40;;;;;;5025365;28;20087;-62
2023/04/01 12:04:05;;;;;;;1.65;0.77;;;19.30;62.40;;;;;;5012634;28;20029;-61
2023/04/01 12:06:44;;;;;;;3.47;0.70;;;19.30;62.40;;;;;;5017744;28;20113;-62
2023/04/01 12:09:28;;;;;;;3.65;0.85;;;19.30;62.40;;;;;;5032732;28;20025;-62
2023/04/01 12:12:12;;;;;;;1.13;0.40;;;19.30;62.30;;;;;;5024137;28;20088;-63
2023/04/01 12:14:50;;;;;;;1.38;0.70;;;19.30;62.30;;;;;;5031369;28;20037;-62
2023/04/01 12:17:35;;;;;;;1.30;0.70;;;19.30;62.30;;;;;;5031822;28;20174;-62
2023/04/01 12:20:12;;;;;;;1.20;0.50;;;19.30;62.30;;;;;;5034829;28;20625;-60
2023/04/01 12:22:53;;;;;;;1.17;0.70;;;19.30;62.40;;;;;;5036529;28;20044;-59
2023/04/01 12:25:41;;;;;;;1.20;0.50;;;19.30;62.30;;;;;;5011807;28;20038;-58
2023/04/01 12:28:23;;;;;;;2.35;0.75;;;19.30;62.20;;;;;;5010885;28;20053;-63
2023/04/01 12:31:19;;;;;;;0.88;0.52;;;19.30;62.40;;;;;;5030995;28;20154;-62
2023/04/01 12:33:52;;;;;;;;;;;19.30;62.30;;;;;;5017956;28;20038;-63
2023/04/01 12:36:37;;;;;;;1.90;0.65;;;19.30;62.40;;;;;;5025605;28;20082;-62
2023/04/01 12:39:23;;;;;;;0.60;0.50;;;19.30;62.30;;;;;;5024518;28;20120;-62
2023/04/01 12:41:51;;;;;;;;;;;19.30;62.30;;;;;;5033897;28;20502;-62
2023/04/01 12:44:28;;;;;;;1.08;0.47;;;19.30;62.30;;;;;;5027519;28;19949;-62
2023/04/01 12:47:27;;;;;;;1.88;0.70;;;19.30;62.30;;;;;;5012131;28;20037;-62
2023/04/01 12:50:30;;;;;;;1.10;0.70;;;19.30;62.30;;;;;;5010201;28;20379;-57
2023/04/01 12:53:17;;;;;;;2.88;1.13;;;19.30;62.20;;;;;;5003116;28;20056;-59
2023/04/01 12:55:44;;;;;;;0.90;0.40;;;19.30;62.20;;;;;;5012585;28;20044;-62
2023/04/01 12:58:52;;;;;;;1.60;0.52;;;19.30;62.20;;;;;;5020326;28;20087;-63
2023/04/01 13:01:51;;;;;;;0.75;0.40;;;19.30;62.20;;;;;;5022961;28;20091;-63
2023/04/01 13:04:34;;;;;;;2.38;0.50;;;19.30;62.20;;;;;;5013650;28;20080;-59
2023/04/01 13:07:13;;;;;;;0.90;0.40;;;19.30;62.20;;;;;;5015986;28;20060;-63
2023/04/01 13:10:09;;;;;;;1.75;0.55;;;19.30;62.10;;;;;;5035521;28;20037;-60
2023/04/01 13:12:56;;;;;;;2.03;0.45;;;19.30;62.20;;;;;;5019605;28;20040;-59
2023/04/01 13:15:34;;;;;;;1.75;0.52;;;19.20;62.10;;;;;;5034200;28;20214;-63
2023/04/01 13:18:19;;;;;;;2.15;0.60;;;19.30;62.20;;;;;;5037156;28;20048;-60
2023/04/01 13:21:07;;;;;;;1.30;0.50;;;19.30;62.20;;;;;;5030463;28;20041;-63
2023/04/01 13:23:52;;;;;;;2.90;0.85;;;19.30;62.10;;;;;;5003735;28;20120;-62
2023/04/01 13:26:43;;;;;;;1.05;0.60;;;19.30;62.10;;;;;;5015059;28;20045;-61
2023/04/01 13:29:22;;;;;;;0.98;0.40;;;19.30;62.00;;;;;;5009853;28;20056;-62
2023/04/01 13:31:55;;;;;;;2.33;0.55;;;19.30;62.00;;;;;;5032282;28;20493;-61
2023/04/01 13:34:29;;;;;;;0.88;0.50;;;19.30;62.00;;;;;;5032570;28;20033;-62
2023/04/01 13:37:22;;;;;;;1.08;0.52;;;19.30;62.00;;;;;;5032388;28;20037;-63
2023/04/01 13:40:15;;;;;;;0.65;0.38;;;19.30;62.00;;;;;;5031592;28;20044;-59